Terminal Aerodrome Forecast
Issued by NWS

Home | Current Version | Previous Version | Text Only | Print | Product List | Glossary On
Versions: 1 2 3 4 5 6 7 8 9 10 11 12 13 14 15 16
023
FTUS45 KRIW 211739
TAFJAC
TAF
KJAC 211739Z 2118/2218 00000KT P6SM -RA SCT004 OVC030
      TEMPO 2118/2122 2SM -RASN BKN004
     FM212200 29009KT 5SM -RA SCT012 BKN020
     FM220100 36007KT 6SM -RA SCT020 BKN030
      AMD LTD TO CLD VIS AND WIND=

USA.gov is the U.S. government's official web portal to all federal, state and local government web resources and services.